Felixstowe, United Kingdom
Current Conditions -  °F | °C
As of 11:50 PM on Wednesday 28 Jan 2015 (Local Time) from EGUW Reporting Station
Clear Clear  
Wind Chill: 22°   Ceiling: Unl
Heat Index: 34°   Visibility: 6mi
Dew Point: 28°   Wind: 20mph
Humidity: 81%   Direction: 240°WSW
Pressure: 29.38"   Gusts: NA
Location:  51.96°N, 1.35°E
Report Text: EGUW 282350Z 24017KT CAVOK 01/M02 Q0995 BLU
Loading
Personal Weather Stations






























Interactive Weather Map New forecast layout! Learn more

10-Day Weather Forecast

Advertisements
Track Severe Weather on mobile